sensor_id;sensor_type;location;lat;lon;timestamp;P1;durP1;ratioP1;P2;durP2;ratioP2
13250;SDS011;6692;50.710;7.180;2023-05-10T00:01:07;283.80;;;273.90;;
13250;SDS011;6692;50.710;7.180;2023-05-10T00:03:08;288.20;;;278.07;;
13250;SDS011;6692;50.710;7.180;2023-05-10T00:05:09;277.57;;;267.87;;
13250;SDS011;6692;50.710;7.180;2023-05-10T00:07:10;284.33;;;274.47;;
13250;SDS011;6692;50.710;7.180;2023-05-10T00:09:11;279.70;;;269.97;;
13250;SDS011;6692;50.710;7.180;2023-05-10T00:11:11;260.60;;;251.53;;
13250;SDS011;6692;50.710;7.180;2023-05-10T00:13:13;268.63;;;259.33;;
13250;SDS011;6692;50.710;7.180;2023-05-10T00:15:13;261.60;;;252.47;;
13250;SDS011;6692;50.710;7.180;2023-05-10T00:17:14;264.50;;;255.30;;
13250;SDS011;6692;50.710;7.180;2023-05-10T00:19:16;265.23;;;256.00;;
13250;SDS011;6692;50.710;7.180;2023-05-10T00:21:16;276.37;;;266.77;;
13250;SDS011;6692;50.710;7.180;2023-05-10T00:23:17;269.13;;;259.83;;
13250;SDS011;6692;50.710;7.180;2023-05-10T00:25:17;270.03;;;260.70;;
13250;SDS011;6692;50.710;7.180;2023-05-10T00:27:18;274.30;;;264.77;;
13250;SDS011;6692;50.710;7.180;2023-05-10T00:29:20;256.97;;;247.97;;
13250;SDS011;6692;50.710;7.180;2023-05-10T00:31:20;252.33;;;243.60;;
13250;SDS011;6692;50.710;7.180;2023-05-10T00:33:21;255.93;;;247.10;;
13250;SDS011;6692;50.710;7.180;2023-05-10T00:35:22;267.03;;;257.80;;
13250;SDS011;6692;50.710;7.180;2023-05-10T00:37:23;261.60;;;252.50;;
13250;SDS011;6692;50.710;7.180;2023-05-10T00:39:24;255.93;;;247.10;;
13250;SDS011;6692;50.710;7.180;2023-05-10T00:41:25;262.50;;;253.40;;
13250;SDS011;6692;50.710;7.180;2023-05-10T00:43:26;264.93;;;255.77;;
13250;SDS011;6692;50.710;7.180;2023-05-10T00:45:27;263.93;;;254.77;;
13250;SDS011;6692;50.710;7.180;2023-05-10T00:47:27;255.60;;;246.77;;
13250;SDS011;6692;50.710;7.180;2023-05-10T00:49:28;263.57;;;254.47;;
13250;SDS011;6692;50.710;7.180;2023-05-10T00:51:29;258.00;;;249.07;;
13250;SDS011;6692;50.710;7.180;2023-05-10T00:53:30;266.40;;;257.20;;
13250;SDS011;6692;50.710;7.180;2023-05-10T00:55:31;266.73;;;257.50;;
13250;SDS011;6692;50.710;7.180;2023-05-10T00:57:31;268.63;;;259.30;;
13250;SDS011;6692;50.710;7.180;2023-05-10T00:59:32;251.20;;;242.53;;
13250;SDS011;6692;50.710;7.180;2023-05-10T01:01:33;250.50;;;241.80;;
13250;SDS011;6692;50.710;7.180;2023-05-10T01:03:33;270.97;;;261.47;;
13250;SDS011;6692;50.710;7.180;2023-05-10T01:05:34;281.53;;;271.70;;
13250;SDS011;6692;50.710;7.180;2023-05-10T01:07:35;269.87;;;260.47;;
13250;SDS011;6692;50.710;7.180;2023-05-10T01:09:35;277.53;;;267.87;;
13250;SDS011;6692;50.710;7.180;2023-05-10T01:11:37;285.10;;;275.20;;
13250;SDS011;6692;50.710;7.180;2023-05-10T01:13:38;288.80;;;278.80;;
13250;SDS011;6692;50.710;7.180;2023-05-10T01:15:38;288.50;;;278.37;;
13250;SDS011;6692;50.710;7.180;2023-05-10T01:17:39;296.70;;;286.40;;
13250;SDS011;6692;50.710;7.180;2023-05-10T01:19:39;287.10;;;277.10;;
13250;SDS011;6692;50.710;7.180;2023-05-10T01:21:49;291.67;;;281.43;;
13250;SDS011;6692;50.710;7.180;2023-05-10T01:24:17;287.80;;;277.80;;
13250;SDS011;6692;50.710;7.180;2023-05-10T01:26:36;311.77;;;300.87;;
13250;SDS011;6692;50.710;7.180;2023-05-10T01:31:03;300.13;;;289.70;;
13250;SDS011;6692;50.710;7.180;2023-05-10T01:33:01;282.10;;;272.30;;
13250;SDS011;6692;50.710;7.180;2023-05-10T01:35:04;277.07;;;267.43;;
13250;SDS011;6692;50.710;7.180;2023-05-10T01:37:06;275.47;;;265.87;;
13250;SDS011;6692;50.710;7.180;2023-05-10T01:39:10;260.20;;;251.20;;
13250;SDS011;6692;50.710;7.180;2023-05-10T01:41:14;265.17;;;255.93;;
13250;SDS011;6692;50.710;7.180;2023-05-10T01:43:17;257.53;;;248.33;;
13250;SDS011;6692;50.710;7.180;2023-05-10T01:45:20;267.33;;;258.03;;
13250;SDS011;6692;50.710;7.180;2023-05-10T01:47:20;278.00;;;268.33;;
13250;SDS011;6692;50.710;7.180;2023-05-10T01:49:23;275.57;;;265.93;;
13250;SDS011;6692;50.710;7.180;2023-05-10T01:51:23;273.07;;;263.50;;
13250;SDS011;6692;50.710;7.180;2023-05-10T01:53:22;279.67;;;269.97;;
13250;SDS011;6692;50.710;7.180;2023-05-10T01:55:24;282.63;;;272.80;;
13250;SDS011;6692;50.710;7.180;2023-05-10T01:57:25;282.97;;;272.90;;
13250;SDS011;6692;50.710;7.180;2023-05-10T01:59:24;286.63;;;276.67;;
13250;SDS011;6692;50.710;7.180;2023-05-10T02:01:25;288.57;;;278.50;;
13250;SDS011;6692;50.710;7.180;2023-05-10T02:03:25;270.37;;;260.87;;
13250;SDS011;6692;50.710;7.180;2023-05-10T02:05:26;282.67;;;272.83;;
13250;SDS011;6692;50.710;7.180;2023-05-10T02:07:28;287.50;;;277.43;;
13250;SDS011;6692;50.710;7.180;2023-05-10T02:09:27;272.77;;;263.30;;
13250;SDS011;6692;50.710;7.180;2023-05-10T02:11:29;290.93;;;280.80;;
13250;SDS011;6692;50.710;7.180;2023-05-10T02:13:29;296.43;;;286.10;;
13250;SDS011;6692;50.710;7.180;2023-05-10T02:15:30;296.43;;;286.10;;
13250;SDS011;6692;50.710;7.180;2023-05-10T02:17:31;304.47;;;293.83;;
13250;SDS011;6692;50.710;7.180;2023-05-10T02:19:32;294.00;;;283.77;;
13250;SDS011;6692;50.710;7.180;2023-05-10T02:21:33;292.60;;;282.30;;
13250;SDS011;6692;50.710;7.180;2023-05-10T02:23:34;290.93;;;280.60;;
13250;SDS011;6692;50.710;7.180;2023-05-10T02:25:34;296.53;;;286.23;;
13250;SDS011;6692;50.710;7.180;2023-05-10T02:27:35;282.97;;;273.17;;
13250;SDS011;6692;50.710;7.180;2023-05-10T02:29:36;284.33;;;274.23;;
13250;SDS011;6692;50.710;7.180;2023-05-10T02:31:37;266.90;;;257.57;;
13250;SDS011;6692;50.710;7.180;2023-05-10T02:33:38;251.93;;;243.00;;
13250;SDS011;6692;50.710;7.180;2023-05-10T02:35:39;266.77;;;257.40;;
13250;SDS011;6692;50.710;7.180;2023-05-10T02:37:40;291.13;;;280.90;;
13250;SDS011;6692;50.710;7.180;2023-05-10T02:39:40;274.03;;;264.40;;
13250;SDS011;6692;50.710;7.180;2023-05-10T02:41:41;287.47;;;277.17;;
13250;SDS011;6692;50.710;7.180;2023-05-10T02:43:42;280.77;;;271.00;;
13250;SDS011;6692;50.710;7.180;2023-05-10T02:45:43;277.27;;;267.67;;
13250;SDS011;6692;50.710;7.180;2023-05-10T02:47:43;276.30;;;266.67;;
13250;SDS011;6692;50.710;7.180;2023-05-10T02:49:44;276.37;;;266.70;;
13250;SDS011;6692;50.710;7.180;2023-05-10T02:51:47;286.97;;;276.97;;
13250;SDS011;6692;50.710;7.180;2023-05-10T02:53:46;279.43;;;269.63;;
13250;SDS011;6692;50.710;7.180;2023-05-10T02:55:48;278.30;;;268.60;;
13250;SDS011;6692;50.710;7.180;2023-05-10T02:57:49;269.93;;;260.43;;
13250;SDS011;6692;50.710;7.180;2023-05-10T02:59:49;284.93;;;274.90;;
13250;SDS011;6692;50.710;7.180;2023-05-10T03:01:50;295.13;;;284.77;;
13250;SDS011;6692;50.710;7.180;2023-05-10T03:03:51;287.50;;;277.43;;
13250;SDS011;6692;50.710;7.180;2023-05-10T03:05:51;287.83;;;277.77;;
13250;SDS011;6692;50.710;7.180;2023-05-10T03:07:53;290.27;;;280.10;;
13250;SDS011;6692;50.710;7.180;2023-05-10T03:09:53;277.83;;;268.10;;
13250;SDS011;6692;50.710;7.180;2023-05-10T03:11:57;278.80;;;269.07;;
13250;SDS011;6692;50.710;7.180;2023-05-10T03:14:04;299.90;;;289.43;;
13250;SDS011;6692;50.710;7.180;2023-05-10T03:16:06;283.43;;;273.50;;
13250;SDS011;6692;50.710;7.180;2023-05-10T03:18:07;285.03;;;275.07;;
13250;SDS011;6692;50.710;7.180;2023-05-10T03:20:08;277.97;;;268.23;;
13250;SDS011;6692;50.710;7.180;2023-05-10T03:22:10;269.07;;;259.63;;
13250;SDS011;6692;50.710;7.180;2023-05-10T03:24:11;270.03;;;260.50;;
13250;SDS011;6692;50.710;7.180;2023-05-10T03:26:15;275.40;;;265.73;;
13250;SDS011;6692;50.710;7.180;2023-05-10T03:28:14;268.67;;;259.27;;
13250;SDS011;6692;50.710;7.180;2023-05-10T03:30:14;274.23;;;264.63;;
13250;SDS011;6692;50.710;7.180;2023-05-10T03:32:15;288.57;;;278.47;;
13250;SDS011;6692;50.710;7.180;2023-05-10T03:34:16;285.83;;;275.83;;
13250;SDS011;6692;50.710;7.180;2023-05-10T03:36:17;297.03;;;286.57;;
13250;SDS011;6692;50.710;7.180;2023-05-10T03:38:17;304.67;;;293.93;;
13250;SDS011;6692;50.710;7.180;2023-05-10T03:40:18;294.93;;;284.57;;
13250;SDS011;6692;50.710;7.180;2023-05-10T03:42:19;292.13;;;281.70;;
13250;SDS011;6692;50.710;7.180;2023-05-10T03:44:19;294.13;;;283.57;;
13250;SDS011;6692;50.710;7.180;2023-05-10T03:46:20;283.23;;;273.30;;
13250;SDS011;6692;50.710;7.180;2023-05-10T03:48:21;279.93;;;270.13;;
13250;SDS011;6692;50.710;7.180;2023-05-10T03:50:21;288.20;;;278.10;;
13250;SDS011;6692;50.710;7.180;2023-05-10T03:52:22;284.57;;;274.57;;
13250;SDS011;6692;50.710;7.180;2023-05-10T03:54:23;279.77;;;269.97;;
13250;SDS011;6692;50.710;7.180;2023-05-10T03:56:23;278.57;;;268.87;;
13250;SDS011;6692;50.710;7.180;2023-05-10T03:58:24;273.30;;;263.50;;
13250;SDS011;6692;50.710;7.180;2023-05-10T04:00:25;258.07;;;248.93;;
13250;SDS011;6692;50.710;7.180;2023-05-10T04:02:25;275.97;;;266.23;;
13250;SDS011;6692;50.710;7.180;2023-05-10T04:04:27;280.80;;;270.87;;
13250;SDS011;6692;50.710;7.180;2023-05-10T04:06:27;281.40;;;271.43;;
13250;SDS011;6692;50.710;7.180;2023-05-10T04:08:28;287.40;;;277.20;;
13250;SDS011;6692;50.710;7.180;2023-05-10T04:10:29;275.10;;;265.27;;
13250;SDS011;6692;50.710;7.180;2023-05-10T04:12:29;284.63;;;274.57;;
13250;SDS011;6692;50.710;7.180;2023-05-10T04:14:30;287.53;;;277.37;;
13250;SDS011;6692;50.710;7.180;2023-05-10T04:16:32;280.37;;;270.23;;
13250;SDS011;6692;50.710;7.180;2023-05-10T04:18:32;285.10;;;274.77;;
13250;SDS011;6692;50.710;7.180;2023-05-10T04:20:33;284.73;;;274.53;;
13250;SDS011;6692;50.710;7.180;2023-05-10T04:22:34;291.67;;;281.27;;
13250;SDS011;6692;50.710;7.180;2023-05-10T04:24:34;281.00;;;271.03;;
13250;SDS011;6692;50.710;7.180;2023-05-10T04:26:35;284.87;;;274.77;;
13250;SDS011;6692;50.710;7.180;2023-05-10T04:28:36;274.23;;;264.40;;
13250;SDS011;6692;50.710;7.180;2023-05-10T04:30:36;279.13;;;269.17;;
13250;SDS011;6692;50.710;7.180;2023-05-10T04:32:37;275.50;;;265.70;;
13250;SDS011;6692;50.710;7.180;2023-05-10T04:34:38;279.60;;;269.60;;
13250;SDS011;6692;50.710;7.180;2023-05-10T04:36:39;279.80;;;269.83;;
13250;SDS011;6692;50.710;7.180;2023-05-10T04:38:40;273.13;;;263.13;;
13250;SDS011;6692;50.710;7.180;2023-05-10T04:40:40;259.80;;;250.53;;
13250;SDS011;6692;50.710;7.180;2023-05-10T04:42:41;271.60;;;261.80;;
13250;SDS011;6692;50.710;7.180;2023-05-10T04:44:42;268.67;;;259.00;;
13250;SDS011;6692;50.710;7.180;2023-05-10T04:46:42;274.90;;;265.17;;
13250;SDS011;6692;50.710;7.180;2023-05-10T04:48:43;271.40;;;261.77;;
13250;SDS011;6692;50.710;7.180;2023-05-10T04:50:44;270.73;;;261.07;;
13250;SDS011;6692;50.710;7.180;2023-05-10T04:52:45;268.63;;;259.13;;
13250;SDS011;6692;50.710;7.180;2023-05-10T04:54:46;268.30;;;258.77;;
13250;SDS011;6692;50.710;7.180;2023-05-10T04:56:46;260.57;;;251.27;;
13250;SDS011;6692;50.710;7.180;2023-05-10T04:58:47;271.40;;;261.77;;
13250;SDS011;6692;50.710;7.180;2023-05-10T05:00:48;249.47;;;240.67;;
13250;SDS011;6692;50.710;7.180;2023-05-10T05:02:49;250.80;;;241.87;;
13250;SDS011;6692;50.710;7.180;2023-05-10T05:04:50;247.20;;;238.43;;
13250;SDS011;6692;50.710;7.180;2023-05-10T05:06:50;244.70;;;235.93;;
13250;SDS011;6692;50.710;7.180;2023-05-10T05:08:51;242.20;;;233.50;;
13250;SDS011;6692;50.710;7.180;2023-05-10T05:10:52;233.47;;;225.00;;
13250;SDS011;6692;50.710;7.180;2023-05-10T05:12:52;239.13;;;230.40;;
13250;SDS011;6692;50.710;7.180;2023-05-10T05:14:53;252.07;;;242.93;;
13250;SDS011;6692;50.710;7.180;2023-05-10T05:16:54;239.27;;;230.63;;
13250;SDS011;6692;50.710;7.180;2023-05-10T05:18:54;233.03;;;224.53;;
13250;SDS011;6692;50.710;7.180;2023-05-10T05:20:55;232.67;;;224.33;;
13250;SDS011;6692;50.710;7.180;2023-05-10T05:22:56;235.80;;;227.30;;
13250;SDS011;6692;50.710;7.180;2023-05-10T05:24:57;234.87;;;226.27;;
13250;SDS011;6692;50.710;7.180;2023-05-10T05:26:57;234.13;;;225.83;;
13250;SDS011;6692;50.710;7.180;2023-05-10T05:28:59;234.50;;;226.07;;
13250;SDS011;6692;50.710;7.180;2023-05-10T05:30:59;243.97;;;235.07;;
13250;SDS011;6692;50.710;7.180;2023-05-10T05:33:00;243.30;;;234.50;;
13250;SDS011;6692;50.710;7.180;2023-05-10T05:35:01;235.47;;;226.93;;
13250;SDS011;6692;50.710;7.180;2023-05-10T05:37:01;232.93;;;224.60;;
13250;SDS011;6692;50.710;7.180;2023-05-10T05:39:02;238.00;;;229.50;;
13250;SDS011;6692;50.710;7.180;2023-05-10T05:41:04;236.93;;;228.40;;
13250;SDS011;6692;50.710;7.180;2023-05-10T05:43:05;233.23;;;224.80;;
13250;SDS011;6692;50.710;7.180;2023-05-10T05:45:06;238.87;;;230.43;;
13250;SDS011;6692;50.710;7.180;2023-05-10T05:47:07;233.37;;;225.07;;
13250;SDS011;6692;50.710;7.180;2023-05-10T05:49:08;229.13;;;220.93;;
13250;SDS011;6692;50.710;7.180;2023-05-10T05:51:10;227.17;;;219.07;;
13250;SDS011;6692;50.710;7.180;2023-05-10T05:53:10;239.03;;;230.57;;
13250;SDS011;6692;50.710;7.180;2023-05-10T05:55:11;245.50;;;236.80;;
13250;SDS011;6692;50.710;7.180;2023-05-10T05:57:12;249.07;;;240.07;;
13250;SDS011;6692;50.710;7.180;2023-05-10T05:59:12;239.03;;;230.63;;
13250;SDS011;6692;50.710;7.180;2023-05-10T06:01:13;246.40;;;237.70;;
13250;SDS011;6692;50.710;7.180;2023-05-10T06:03:14;230.63;;;222.43;;
13250;SDS011;6692;50.710;7.180;2023-05-10T06:05:14;238.97;;;230.47;;
13250;SDS011;6692;50.710;7.180;2023-05-10T06:07:15;232.43;;;224.23;;
13250;SDS011;6692;50.710;7.180;2023-05-10T06:09:16;242.70;;;234.07;;
13250;SDS011;6692;50.710;7.180;2023-05-10T06:11:16;239.77;;;231.00;;
13250;SDS011;6692;50.710;7.180;2023-05-10T06:13:18;242.77;;;234.07;;
13250;SDS011;6692;50.710;7.180;2023-05-10T06:15:18;260.47;;;251.07;;
13250;SDS011;6692;50.710;7.180;2023-05-10T06:17:20;248.43;;;239.60;;
13250;SDS011;6692;50.710;7.180;2023-05-10T06:19:20;248.40;;;239.40;;
13250;SDS011;6692;50.710;7.180;2023-05-10T06:21:21;240.83;;;232.27;;
13250;SDS011;6692;50.710;7.180;2023-05-10T06:23:22;240.90;;;232.23;;
13250;SDS011;6692;50.710;7.180;2023-05-10T06:25:22;272.40;;;262.77;;
13250;SDS011;6692;50.710;7.180;2023-05-10T06:27:23;263.17;;;253.73;;
13250;SDS011;6692;50.710;7.180;2023-05-10T06:29:24;268.20;;;258.63;;
13250;SDS011;6692;50.710;7.180;2023-05-10T06:31:24;265.63;;;256.13;;
13250;SDS011;6692;50.710;7.180;2023-05-10T06:33:25;263.47;;;253.93;;
13250;SDS011;6692;50.710;7.180;2023-05-10T06:35:26;270.87;;;261.17;;
13250;SDS011;6692;50.710;7.180;2023-05-10T06:37:26;272.57;;;262.83;;
13250;SDS011;6692;50.710;7.180;2023-05-10T06:39:27;270.03;;;260.43;;
13250;SDS011;6692;50.710;7.180;2023-05-10T06:41:28;276.40;;;266.60;;
13250;SDS011;6692;50.710;7.180;2023-05-10T06:43:29;262.60;;;253.20;;
13250;SDS011;6692;50.710;7.180;2023-05-10T06:45:30;260.60;;;251.40;;
13250;SDS011;6692;50.710;7.180;2023-05-10T06:47:30;276.70;;;266.93;;
13250;SDS011;6692;50.710;7.180;2023-05-10T06:49:31;263.80;;;254.43;;
13250;SDS011;6692;50.710;7.180;2023-05-10T06:51:32;267.27;;;257.67;;
13250;SDS011;6692;50.710;7.180;2023-05-10T06:53:32;261.50;;;252.30;;
13250;SDS011;6692;50.710;7.180;2023-05-10T06:55:33;279.53;;;269.40;;
13250;SDS011;6692;50.710;7.180;2023-05-10T06:57:34;263.80;;;254.47;;
13250;SDS011;6692;50.710;7.180;2023-05-10T06:59:34;263.30;;;254.00;;
13250;SDS011;6692;50.710;7.180;2023-05-10T07:01:35;273.27;;;263.60;;
13250;SDS011;6692;50.710;7.180;2023-05-10T07:03:35;270.23;;;260.60;;
13250;SDS011;6692;50.710;7.180;2023-05-10T07:05:36;266.77;;;257.27;;
13250;SDS011;6692;50.710;7.180;2023-05-10T07:07:37;268.10;;;258.67;;
13250;SDS011;6692;50.710;7.180;2023-05-10T07:09:37;261.50;;;252.10;;
13250;SDS011;6692;50.710;7.180;2023-05-10T07:11:38;265.93;;;256.40;;
13250;SDS011;6692;50.710;7.180;2023-05-10T07:13:39;274.23;;;264.53;;
13250;SDS011;6692;50.710;7.180;2023-05-10T07:15:39;269.80;;;260.20;;
13250;SDS011;6692;50.710;7.180;2023-05-10T07:17:40;269.83;;;260.13;;
13250;SDS011;6692;50.710;7.180;2023-05-10T07:19:41;284.07;;;273.87;;
13250;SDS011;6692;50.710;7.180;2023-05-10T07:21:41;279.60;;;269.47;;
13250;SDS011;6692;50.710;7.180;2023-05-10T07:23:42;279.03;;;269.13;;
13250;SDS011;6692;50.710;7.180;2023-05-10T07:25:47;280.10;;;270.07;;
13250;SDS011;6692;50.710;7.180;2023-05-10T07:27:47;277.37;;;267.47;;
13250;SDS011;6692;50.710;7.180;2023-05-10T07:29:49;269.13;;;259.53;;
13250;SDS011;6692;50.710;7.180;2023-05-10T07:31:49;287.73;;;277.30;;
13250;SDS011;6692;50.710;7.180;2023-05-10T07:33:50;282.17;;;272.20;;
13250;SDS011;6692;50.710;7.180;2023-05-10T07:35:51;285.57;;;275.37;;
13250;SDS011;6692;50.710;7.180;2023-05-10T07:37:52;275.13;;;265.50;;
13250;SDS011;6692;50.710;7.180;2023-05-10T07:39:53;287.47;;;277.37;;
13250;SDS011;6692;50.710;7.180;2023-05-10T07:41:54;281.53;;;271.57;;
13250;SDS011;6692;50.710;7.180;2023-05-10T07:43:55;288.70;;;278.47;;
13250;SDS011;6692;50.710;7.180;2023-05-10T07:45:56;279.67;;;269.80;;
13250;SDS011;6692;50.710;7.180;2023-05-10T07:47:57;281.97;;;272.13;;
13250;SDS011;6692;50.710;7.180;2023-05-10T07:49:57;288.43;;;278.33;;
13250;SDS011;6692;50.710;7.180;2023-05-10T07:51:58;282.83;;;272.93;;
13250;SDS011;6692;50.710;7.180;2023-05-10T07:53:59;274.00;;;264.30;;
13250;SDS011;6692;50.710;7.180;2023-05-10T07:56:19;288.17;;;278.13;;
13250;SDS011;6692;50.710;7.180;2023-05-10T07:58:01;262.33;;;253.20;;
13250;SDS011;6692;50.710;7.180;2023-05-10T08:00:02;268.53;;;259.20;;
13250;SDS011;6692;50.710;7.180;2023-05-10T08:02:03;266.90;;;257.67;;
13250;SDS011;6692;50.710;7.180;2023-05-10T08:04:03;273.33;;;263.87;;
13250;SDS011;6692;50.710;7.180;2023-05-10T08:06:04;252.80;;;244.03;;
13250;SDS011;6692;50.710;7.180;2023-05-10T08:08:05;247.43;;;238.77;;
13250;SDS011;6692;50.710;7.180;2023-05-10T08:10:07;258.90;;;249.80;;
13250;SDS011;6692;50.710;7.180;2023-05-10T08:12:09;260.47;;;251.37;;
13250;SDS011;6692;50.710;7.180;2023-05-10T08:14:10;258.87;;;249.93;;
13250;SDS011;6692;50.710;7.180;2023-05-10T08:16:11;262.90;;;253.73;;
13250;SDS011;6692;50.710;7.180;2023-05-10T08:18:11;285.60;;;275.63;;
13250;SDS011;6692;50.710;7.180;2023-05-10T08:20:12;313.77;;;302.90;;
13250;SDS011;6692;50.710;7.180;2023-05-10T08:22:13;320.73;;;309.50;;
13250;SDS011;6692;50.710;7.180;2023-05-10T08:24:13;331.97;;;320.27;;
13250;SDS011;6692;50.710;7.180;2023-05-10T08:26:14;338.33;;;326.10;;
13250;SDS011;6692;50.710;7.180;2023-05-10T08:28:15;355.47;;;342.37;;
13250;SDS011;6692;50.710;7.180;2023-05-10T08:30:15;330.77;;;318.63;;
13250;SDS011;6692;50.710;7.180;2023-05-10T08:32:17;305.23;;;294.13;;
13250;SDS011;6692;50.710;7.180;2023-05-10T08:34:17;306.03;;;294.70;;
13250;SDS011;6692;50.710;7.180;2023-05-10T08:36:18;315.20;;;303.67;;
13250;SDS011;6692;50.710;7.180;2023-05-10T08:38:19;350.63;;;337.60;;
13250;SDS011;6692;50.710;7.180;2023-05-10T08:40:19;365.47;;;351.57;;
13250;SDS011;6692;50.710;7.180;2023-05-10T08:42:21;338.77;;;326.40;;
13250;SDS011;6692;50.710;7.180;2023-05-10T08:44:22;413.67;;;396.80;;
13250;SDS011;6692;50.710;7.180;2023-05-10T08:46:23;336.23;;;324.03;;
13250;SDS011;6692;50.710;7.180;2023-05-10T08:48:24;341.00;;;328.73;;
13250;SDS011;6692;50.710;7.180;2023-05-10T08:50:25;349.43;;;336.53;;
13250;SDS011;6692;50.710;7.180;2023-05-10T08:52:25;358.60;;;345.27;;
13250;SDS011;6692;50.710;7.180;2023-05-10T08:54:26;364.23;;;349.23;;
13250;SDS011;6692;50.710;7.180;2023-05-10T08:56:27;380.13;;;364.90;;
13250;SDS011;6692;50.710;7.180;2023-05-10T08:58:27;404.10;;;388.00;;
13250;SDS011;6692;50.710;7.180;2023-05-10T09:00:28;395.30;;;379.60;;
13250;SDS011;6692;50.710;7.180;2023-05-10T09:02:29;393.53;;;378.33;;
13250;SDS011;6692;50.710;7.180;2023-05-10T09:04:29;377.00;;;362.50;;
13250;SDS011;6692;50.710;7.180;2023-05-10T09:06:30;374.53;;;360.23;;
13250;SDS011;6692;50.710;7.180;2023-05-10T09:08:31;383.97;;;369.30;;
13250;SDS011;6692;50.710;7.180;2023-05-10T09:10:32;417.80;;;401.63;;
13250;SDS011;6692;50.710;7.180;2023-05-10T09:12:33;449.20;;;431.27;;
13250;SDS011;6692;50.710;7.180;2023-05-10T09:14:33;488.47;;;468.70;;
13250;SDS011;6692;50.710;7.180;2023-05-10T09:16:34;521.57;;;499.30;;
13250;SDS011;6692;50.710;7.180;2023-05-10T09:18:35;504.73;;;483.77;;
13250;SDS011;6692;50.710;7.180;2023-05-10T09:20:36;527.20;;;504.97;;
13250;SDS011;6692;50.710;7.180;2023-05-10T09:22:37;534.13;;;511.47;;
13250;SDS011;6692;50.710;7.180;2023-05-10T09:24:37;548.67;;;525.30;;
13250;SDS011;6692;50.710;7.180;2023-05-10T09:26:45;550.00;;;526.20;;
13250;SDS011;6692;50.710;7.180;2023-05-10T09:28:55;581.10;;;555.17;;
13250;SDS011;6692;50.710;7.180;2023-05-10T09:30:56;644.47;;;615.10;;
13250;SDS011;6692;50.710;7.180;2023-05-10T09:32:57;625.00;;;596.83;;
13250;SDS011;6692;50.710;7.180;2023-05-10T09:34:57;580.73;;;555.23;;
13250;SDS011;6692;50.710;7.180;2023-05-10T09:36:59;573.40;;;548.20;;
13250;SDS011;6692;50.710;7.180;2023-05-10T09:38:59;561.20;;;536.97;;
13250;SDS011;6692;50.710;7.180;2023-05-10T09:40:59;523.80;;;501.80;;
13250;SDS011;6692;50.710;7.180;2023-05-10T09:43:01;516.20;;;494.63;;
13250;SDS011;6692;50.710;7.180;2023-05-10T09:45:02;481.60;;;461.87;;
13250;SDS011;6692;50.710;7.180;2023-05-10T09:47:01;472.63;;;453.47;;
13250;SDS011;6692;50.710;7.180;2023-05-10T09:49:02;478.17;;;459.23;;
13250;SDS011;6692;50.710;7.180;2023-05-10T09:51:03;473.90;;;455.13;;
13250;SDS011;6692;50.710;7.180;2023-05-10T09:53:03;444.23;;;426.80;;
13250;SDS011;6692;50.710;7.180;2023-05-10T09:55:04;430.87;;;414.43;;
13250;SDS011;6692;50.710;7.180;2023-05-10T09:57:05;414.73;;;398.87;;
13250;SDS011;6692;50.710;7.180;2023-05-10T09:59:06;411.83;;;395.90;;
13250;SDS011;6692;50.710;7.180;2023-05-10T10:01:10;414.50;;;398.67;;
13250;SDS011;6692;50.710;7.180;2023-05-10T10:03:12;400.73;;;385.60;;
13250;SDS011;6692;50.710;7.180;2023-05-10T10:05:12;407.33;;;391.53;;
13250;SDS011;6692;50.710;7.180;2023-05-10T10:07:13;389.13;;;374.67;;
13250;SDS011;6692;50.710;7.180;2023-05-10T10:09:14;385.40;;;371.17;;
13250;SDS011;6692;50.710;7.180;2023-05-10T10:11:15;371.40;;;357.63;;
13250;SDS011;6692;50.710;7.180;2023-05-10T10:13:16;392.20;;;377.93;;
13250;SDS011;6692;50.710;7.180;2023-05-10T10:15:17;378.87;;;365.03;;
13250;SDS011;6692;50.710;7.180;2023-05-10T10:17:18;372.43;;;358.90;;
13250;SDS011;6692;50.710;7.180;2023-05-10T10:19:18;362.90;;;349.77;;
13250;SDS011;6692;50.710;7.180;2023-05-10T10:21:19;333.93;;;321.83;;
13250;SDS011;6692;50.710;7.180;2023-05-10T10:23:19;365.10;;;352.00;;
13250;SDS011;6692;50.710;7.180;2023-05-10T10:25:20;383.50;;;369.60;;
13250;SDS011;6692;50.710;7.180;2023-05-10T10:27:58;393.47;;;378.87;;
13250;SDS011;6692;50.710;7.180;2023-05-10T10:30:00;474.73;;;456.23;;
13250;SDS011;6692;50.710;7.180;2023-05-10T10:32:07;496.93;;;477.43;;
13250;SDS011;6692;50.710;7.180;2023-05-10T10:34:05;520.10;;;499.10;;
13250;SDS011;6692;50.710;7.180;2023-05-10T10:36:08;514.70;;;494.23;;
13250;SDS011;6692;50.710;7.180;2023-05-10T10:38:09;518.70;;;497.67;;
13250;SDS011;6692;50.710;7.180;2023-05-10T10:40:22;533.90;;;512.00;;
13250;SDS011;6692;50.710;7.180;2023-05-10T10:44:33;550.93;;;528.07;;
13250;SDS011;6692;50.710;7.180;2023-05-10T10:46:35;565.63;;;541.77;;
13250;SDS011;6692;50.710;7.180;2023-05-10T10:48:36;576.00;;;551.80;;
13250;SDS011;6692;50.710;7.180;2023-05-10T10:50:43;608.57;;;582.50;;
13250;SDS011;6692;50.710;7.180;2023-05-10T10:52:45;606.47;;;580.10;;
13250;SDS011;6692;50.710;7.180;2023-05-10T10:54:49;590.93;;;565.87;;
13250;SDS011;6692;50.710;7.180;2023-05-10T10:56:51;574.50;;;550.17;;
13250;SDS011;6692;50.710;7.180;2023-05-10T10:58:49;613.53;;;587.07;;
13250;SDS011;6692;50.710;7.180;2023-05-10T11:00:49;571.07;;;547.00;;
13250;SDS011;6692;50.710;7.180;2023-05-10T11:02:52;582.57;;;557.93;;
13250;SDS011;6692;50.710;7.180;2023-05-10T11:04:53;540.33;;;517.73;;
13250;SDS011;6692;50.710;7.180;2023-05-10T11:07:11;515.53;;;494.50;;
13250;SDS011;6692;50.710;7.180;2023-05-10T11:08:55;538.67;;;516.03;;
13250;SDS011;6692;50.710;7.180;2023-05-10T11:11:02;589.10;;;563.60;;
13250;SDS011;6692;50.710;7.180;2023-05-10T11:13:05;600.53;;;574.23;;
13250;SDS011;6692;50.710;7.180;2023-05-10T11:15:07;615.93;;;589.23;;
13250;SDS011;6692;50.710;7.180;2023-05-10T11:19:20;620.13;;;592.97;;
13250;SDS011;6692;50.710;7.180;2023-05-10T11:21:20;578.63;;;553.87;;
13250;SDS011;6692;50.710;7.180;2023-05-10T11:23:21;598.87;;;572.63;;
13250;SDS011;6692;50.710;7.180;2023-05-10T11:25:26;551.97;;;529.00;;
13250;SDS011;6692;50.710;7.180;2023-05-10T11:27:26;545.60;;;522.87;;
13250;SDS011;6692;50.710;7.180;2023-05-10T11:29:27;541.47;;;518.97;;
13250;SDS011;6692;50.710;7.180;2023-05-10T11:31:28;517.30;;;495.97;;
13250;SDS011;6692;50.710;7.180;2023-05-10T11:33:29;490.30;;;470.80;;
13250;SDS011;6692;50.710;7.180;2023-05-10T11:35:30;497.17;;;477.20;;
13250;SDS011;6692;50.710;7.180;2023-05-10T11:37:32;473.27;;;454.63;;
13250;SDS011;6692;50.710;7.180;2023-05-10T11:39:32;449.90;;;432.63;;
13250;SDS011;6692;50.710;7.180;2023-05-10T11:41:33;483.83;;;464.67;;
13250;SDS011;6692;50.710;7.180;2023-05-10T11:43:35;497.10;;;477.63;;
13250;SDS011;6692;50.710;7.180;2023-05-10T11:45:35;600.00;;;574.20;;